createdAt,value
2018-03-01T00:02:07.664Z,98992.63
2018-03-01T00:04:39.397Z,98998.19
2018-03-01T00:07:10.989Z,98993.00
2018-03-01T00:09:42.846Z,98994.30
2018-03-01T00:12:14.132Z,98991.73
2018-03-01T00:14:45.689Z,98984.84
2018-03-01T00:17:17.773Z,98985.28
2018-03-01T00:19:49.068Z,98989.63
2018-03-01T00:22:29.308Z,98987.47
2018-03-01T00:25:01.469Z,98980.70
2018-03-01T00:27:32.942Z,98979.37
2018-03-01T00:30:04.383Z,98968.64
2018-03-01T00:32:36.253Z,98961.76
2018-03-01T00:35:08.048Z,98963.03
2018-03-01T00:37:39.349Z,98963.89
2018-03-01T00:40:11.396Z,98971.64
2018-03-01T00:42:42.686Z,98973.77
2018-03-01T00:45:14.366Z,98971.63
2018-03-01T00:47:46.897Z,98972.91
2018-03-01T00:50:18.880Z,98967.78
2018-03-01T00:52:50.917Z,98961.80
2018-03-01T00:55:22.777Z,98956.19
2018-03-01T00:57:54.624Z,98953.64
2018-03-01T01:00:26.006Z,98938.20
2018-03-01T01:02:57.905Z,98935.62
2018-03-01T01:05:29.392Z,98927.47
2018-03-01T01:08:03.398Z,98925.39
2018-03-01T01:10:34.785Z,98926.23
2018-03-01T01:13:06.149Z,98923.23
2018-03-01T01:15:37.828Z,98920.61
2018-03-01T01:18:09.689Z,98927.48
2018-03-01T01:20:41.728Z,98926.22
2018-03-01T01:23:13.088Z,98924.06
2018-03-01T01:25:44.607Z,98920.64
2018-03-01T01:28:16.157Z,98915.52
2018-03-01T01:30:47.568Z,98916.83
2018-03-01T01:33:19.127Z,98911.30
2018-03-01T01:35:50.811Z,98912.12
2018-03-01T01:38:22.393Z,98912.98
2018-03-01T01:40:53.703Z,98906.09
2018-03-01T01:43:26.088Z,98902.29
2018-03-01T01:45:57.404Z,98901.80
2018-03-01T01:48:29.561Z,98900.97
2018-03-01T01:51:05.982Z,98894.16
2018-03-01T01:53:37.828Z,98907.88
2018-03-01T01:56:09.550Z,98910.83
2018-03-01T01:58:41.568Z,98914.26
2018-03-01T02:01:14.030Z,98904.47
2018-03-01T02:03:45.390Z,98904.47
2018-03-01T02:06:17.329Z,98897.59
2018-03-01T02:08:49.064Z,98890.75
2018-03-01T02:11:20.808Z,98891.61
2018-03-01T02:13:52.701Z,98884.30
2018-03-01T02:16:24.422Z,98874.05
2018-03-01T02:18:56.189Z,98868.89
2018-03-01T02:21:28.228Z,98862.92
2018-03-01T02:24:00.985Z,98858.65
2018-03-01T02:26:33.093Z,98852.17
2018-03-01T02:29:05.468Z,98849.66
2018-03-01T02:31:37.253Z,98841.91
2018-03-01T02:34:09.153Z,98838.47
2018-03-01T02:36:42.020Z,98831.59
2018-03-01T02:39:13.532Z,98818.34
2018-03-01T02:41:44.734Z,98824.81
2018-03-01T02:46:46.529Z,98816.25
2018-03-01T02:49:18.077Z,98813.75
2018-03-01T02:51:50.300Z,98811.60
2018-03-01T02:54:21.861Z,98811.09
2018-03-01T02:56:53.755Z,98810.36
2018-03-01T02:59:25.497Z,98809.90
2018-03-01T03:01:56.824Z,98806.34
2018-03-01T03:04:28.020Z,98808.27
2018-03-01T03:07:00.124Z,98800.06
2018-03-01T03:09:32.333Z,98784.71
2018-03-01T03:12:04.036Z,98780.75
2018-03-01T03:14:35.646Z,98781.25
2018-03-01T03:17:07.037Z,98781.66
2018-03-01T03:19:38.660Z,98778.62
2018-03-01T03:22:10.144Z,98775.59
2018-03-01T03:24:42.121Z,98779.05
2018-03-01T03:27:13.168Z,98782.27
2018-03-01T03:29:45.106Z,98781.53
2018-03-01T03:32:17.071Z,98785.48
2018-03-01T03:34:49.229Z,98783.74
2018-03-01T03:37:20.336Z,98779.83
2018-03-01T03:39:52.225Z,98776.48
2018-03-01T03:42:23.910Z,98784.66
2018-03-01T03:44:55.520Z,98791.02
2018-03-01T03:47:27.600Z,98802.17
2018-03-01T03:50:01.261Z,98799.21
2018-03-01T03:52:32.591Z,98808.64
2018-03-01T03:55:05.371Z,98803.02
2018-03-01T03:57:37.272Z,98797.38
2018-03-01T04:00:08.721Z,98792.80
2018-03-01T04:02:40.452Z,98792.78
2018-03-01T04:05:11.644Z,98787.23
2018-03-01T04:07:44.486Z,98780.27
2018-03-01T04:10:15.902Z,98770.58
2018-03-01T04:12:47.245Z,98774.34
2018-03-01T04:15:18.956Z,98767.06
2018-03-01T04:17:50.606Z,98760.20
2018-03-01T04:20:22.712Z,98752.98
2018-03-01T04:22:53.916Z,98756.86
2018-03-01T04:25:25.722Z,98758.91
2018-03-01T04:27:57.424Z,98754.20
2018-03-01T04:30:29.604Z,98749.13
2018-03-01T04:33:02.462Z,98744.41
2018-03-01T04:35:33.610Z,98735.87
2018-03-01T04:38:05.413Z,98736.26
2018-03-01T04:40:37.616Z,98734.13
2018-03-01T04:43:08.739Z,98731.91
2018-03-01T04:45:40.329Z,98728.52
2018-03-01T04:48:12.628Z,98725.16
2018-03-01T04:50:44.385Z,98709.72
2018-03-01T04:53:16.598Z,98701.59
2018-03-01T04:55:48.710Z,98694.33
2018-03-01T04:58:20.709Z,98693.45
2018-03-01T05:03:29.852Z,98688.30
2018-03-01T05:06:01.437Z,98698.56
2018-03-01T05:08:33.109Z,98689.63
2018-03-01T05:11:07.916Z,98683.59
2018-03-01T05:13:39.367Z,98687.84
2018-03-01T05:16:10.936Z,98685.34
2018-03-01T05:18:43.504Z,98679.23
2018-03-01T05:21:14.683Z,98682.66
2018-03-01T05:23:46.881Z,98682.30
2018-03-01T05:26:19.166Z,98683.55
2018-03-01T05:28:51.060Z,98674.66
2018-03-01T05:31:23.039Z,98669.94
2018-03-01T05:33:54.437Z,98662.64
2018-03-01T05:36:25.559Z,98660.17
2018-03-01T05:38:57.105Z,98655.86
2018-03-01T05:41:33.555Z,98661.02
2018-03-01T05:44:06.852Z,98655.55
2018-03-01T05:46:37.930Z,98658.92
2018-03-01T05:49:09.397Z,98660.66
2018-03-01T05:51:42.466Z,98664.07
2018-03-01T05:54:14.158Z,98666.27
2018-03-01T05:56:46.189Z,98669.65
2018-03-01T05:59:17.961Z,98671.83
2018-03-01T06:01:49.136Z,98673.92
2018-03-01T06:04:20.728Z,98673.92
2018-03-01T06:06:52.317Z,98674.39
2018-03-01T06:09:23.927Z,98676.10
2018-03-01T06:11:55.170Z,98672.19
2018-03-01T06:14:26.864Z,98676.98
2018-03-01T06:16:59.189Z,98668.30
2018-03-01T06:19:30.401Z,98664.92
2018-03-01T06:22:03.893Z,98665.35
2018-03-01T06:24:35.765Z,98661.09
2018-03-01T06:27:06.922Z,98657.25
2018-03-01T06:29:38.405Z,98657.61
2018-03-01T06:32:09.589Z,98651.25
2018-03-01T06:34:41.190Z,98649.63
2018-03-01T06:37:12.274Z,98652.19
2018-03-01T06:39:43.484Z,98643.97
2018-03-01T06:42:15.062Z,98642.21
2018-03-01T06:44:47.343Z,98644.33
2018-03-01T06:47:19.463Z,98634.53
2018-03-01T06:49:50.935Z,98638.77
2018-03-01T06:52:21.989Z,98636.16
2018-03-01T06:54:54.045Z,98636.56
2018-03-01T06:57:25.211Z,98636.19
2018-03-01T06:59:56.369Z,98634.80
2018-03-01T07:02:27.737Z,98635.22
2018-03-01T07:04:58.929Z,98639.09
2018-03-01T07:07:30.005Z,98638.26
2018-03-01T07:10:01.566Z,98633.62
2018-03-01T07:12:32.642Z,98640.27
2018-03-01T07:15:04.774Z,98636.92
2018-03-01T07:17:35.869Z,98635.13
2018-03-01T07:20:07.690Z,98617.12
2018-03-01T07:22:38.783Z,98611.94
2018-03-01T07:25:09.854Z,98597.70
2018-03-01T07:27:41.229Z,98591.21
2018-03-01T07:30:12.720Z,98594.19
2018-03-01T07:35:19.336Z,98595.02
2018-03-01T07:37:50.565Z,98600.75
2018-03-01T07:40:21.698Z,98592.37
2018-03-01T07:42:53.170Z,98587.27
2018-03-01T07:45:25.070Z,98583.34
2018-03-01T07:47:57.395Z,98581.52
2018-03-01T07:50:29.222Z,98578.20
2018-03-01T07:53:00.280Z,98582.13
2018-03-01T07:55:31.384Z,98571.09
2018-03-01T07:58:02.825Z,98564.22
2018-03-01T08:00:37.023Z,98557.40
2018-03-01T08:03:08.109Z,98564.56
2018-03-01T08:05:39.723Z,98559.85
2018-03-01T08:08:10.840Z,98551.66
2018-03-01T08:10:42.221Z,98544.61
2018-03-01T08:13:13.357Z,98554.38
2018-03-01T08:15:44.457Z,98541.09
2018-03-01T08:18:15.850Z,98535.73
2018-03-01T08:20:46.954Z,98526.62
2018-03-01T08:23:18.903Z,98519.94
2018-03-01T08:25:50.784Z,98525.25
2018-03-01T08:28:21.897Z,98533.20
2018-03-01T08:30:53.348Z,98525.73
2018-03-01T08:33:24.437Z,98526.13
2018-03-01T08:35:55.612Z,98531.25
2018-03-01T08:38:27.971Z,98532.27
2018-03-01T08:40:59.665Z,98535.83
2018-03-01T08:43:30.802Z,98540.38
2018-03-01T08:46:03.053Z,98533.94
2018-03-01T08:48:34.164Z,98526.77
2018-03-01T08:51:05.656Z,98526.14
2018-03-01T08:53:37.142Z,98521.83
2018-03-01T08:56:08.200Z,98508.84
2018-03-01T08:58:39.590Z,98510.58
2018-03-01T09:01:10.713Z,98509.72
2018-03-01T09:03:41.841Z,98491.55
2018-03-01T09:06:14.825Z,98487.02
2018-03-01T09:08:45.899Z,98487.61
2018-03-01T09:11:17.065Z,98487.83
2018-03-01T09:13:48.768Z,98478.98
2018-03-01T09:16:19.861Z,98482.18
2018-03-01T09:18:51.195Z,98482.83
2018-03-01T09:21:22.277Z,98482.50
2018-03-01T09:23:53.309Z,98476.45
2018-03-01T09:26:24.651Z,98473.86
2018-03-01T09:28:55.829Z,98463.98
2018-03-01T09:31:26.973Z,98463.17
2018-03-01T09:33:58.459Z,98462.45
2018-03-01T09:36:29.656Z,98455.09
2018-03-01T09:39:00.739Z,98446.34
2018-03-01T09:41:32.966Z,98439.36
2018-03-01T09:44:04.277Z,98449.44
2018-03-01T09:46:35.269Z,98438.27
2018-03-01T09:49:07.070Z,98438.55
2018-03-01T09:51:38.147Z,98434.97
2018-03-01T09:54:09.291Z,98431.13
2018-03-01T09:56:40.694Z,98420.48
2018-03-01T09:59:11.789Z,98423.16
2018-03-01T10:01:43.585Z,98426.78
2018-03-01T10:04:15.305Z,98425.45
2018-03-01T10:06:47.098Z,98412.22
2018-03-01T10:09:19.013Z,98419.33
2018-03-01T10:11:52.608Z,98413.06
2018-03-01T10:14:24.277Z,98423.98
2018-03-01T10:16:56.169Z,98417.64
2018-03-01T10:19:27.601Z,98412.86
2018-03-01T10:21:58.800Z,98406.31
2018-03-01T10:24:30.752Z,98397.81
2018-03-01T10:27:02.622Z,98404.20
2018-03-01T10:29:35.765Z,98396.47
2018-03-01T10:32:06.957Z,98388.61
2018-03-01T10:34:38.082Z,98393.27
2018-03-01T10:37:09.498Z,98395.83
2018-03-01T10:39:40.768Z,98390.86
2018-03-01T10:42:12.593Z,98401.77
2018-03-01T10:44:44.885Z,98396.83
2018-03-01T10:47:16.580Z,98392.36
2018-03-01T10:49:48.100Z,98388.52
2018-03-01T10:52:19.363Z,98388.77
2018-03-01T10:54:51.290Z,98381.19
2018-03-01T10:57:22.593Z,98379.44
2018-03-01T10:59:53.762Z,98375.62
2018-03-01T11:02:25.157Z,98366.91
2018-03-01T11:04:57.171Z,98365.97
2018-03-01T11:07:29.361Z,98356.13
2018-03-01T11:10:01.679Z,98359.39
2018-03-01T11:12:33.321Z,98350.39
2018-03-01T11:15:04.984Z,98350.00
2018-03-01T11:17:36.854Z,98329.05
2018-03-01T11:20:08.214Z,98337.84
2018-03-01T11:22:39.857Z,98333.73
2018-03-01T11:25:11.528Z,98331.50
2018-03-01T11:27:42.705Z,98327.33
2018-03-01T11:30:14.802Z,98335.38
2018-03-01T11:32:46.398Z,98332.33
2018-03-01T11:35:17.505Z,98334.77
2018-03-01T11:37:49.076Z,98325.67
2018-03-01T11:40:20.253Z,98309.01
2018-03-01T11:42:51.352Z,98298.05
2018-03-01T11:45:22.850Z,98299.33
2018-03-01T11:47:53.923Z,98295.33
2018-03-01T11:50:25.252Z,98290.56
2018-03-01T11:52:56.425Z,98283.42
2018-03-01T11:55:27.490Z,98278.39
2018-03-01T11:57:58.976Z,98274.15
2018-03-01T12:00:30.105Z,98276.18
2018-03-01T12:03:01.165Z,98273.91
2018-03-01T12:05:32.917Z,98265.59
2018-03-01T12:08:03.747Z,98273.17
2018-03-01T12:10:36.399Z,98264.17
2018-03-01T12:13:07.541Z,98252.70
2018-03-01T12:15:38.405Z,98256.37
2018-03-01T12:18:09.741Z,98249.22
2018-03-01T12:20:40.551Z,98251.58
2018-03-01T12:23:11.610Z,98245.26
2018-03-01T12:25:42.793Z,98243.31
2018-03-01T12:28:13.684Z,98243.23
2018-03-01T12:33:26.233Z,98232.39
2018-03-01T12:35:57.063Z,98233.45
2018-03-01T12:38:28.186Z,98229.70
2018-03-01T12:40:58.985Z,98232.60
2018-03-01T12:43:29.759Z,98225.59
2018-03-01T12:46:00.882Z,98224.66
2018-03-01T12:48:31.685Z,98222.03
2018-03-01T12:51:02.878Z,98214.50
2018-03-01T12:53:34.649Z,98202.98
2018-03-01T12:56:05.531Z,98213.92
2018-03-01T12:58:36.525Z,98202.92
2018-03-01T13:01:07.717Z,98196.54
2018-03-01T13:03:38.873Z,98203.53
2018-03-01T13:06:10.167Z,98205.19
2018-03-01T13:08:41.172Z,98191.75
2018-03-01T13:11:12.257Z,98199.22
2018-03-01T13:13:43.661Z,98202.24
2018-03-01T13:16:14.650Z,98189.45
2018-03-01T13:18:45.585Z,98185.66
2018-03-01T13:21:20.036Z,98185.32
2018-03-01T13:23:51.282Z,98170.70
2018-03-01T13:26:22.629Z,98174.56
2018-03-01T13:28:53.694Z,98182.87
2018-03-01T13:31:24.745Z,98178.28
2018-03-01T13:33:56.377Z,98175.94
2018-03-01T13:36:28.765Z,98171.65
2018-03-01T13:38:59.781Z,98162.56
2018-03-01T13:41:31.129Z,98156.55
2018-03-01T13:44:02.598Z,98154.67
2018-03-01T13:46:33.949Z,98145.88
2018-03-01T13:49:05.405Z,98150.89
2018-03-01T13:51:36.304Z,98154.86
2018-03-01T13:54:07.680Z,98156.86
2018-03-01T13:56:38.894Z,98149.80
2018-03-01T13:59:11.785Z,98142.05
2018-03-01T14:01:43.501Z,98143.81
2018-03-01T14:04:14.382Z,98134.36
2018-03-01T14:06:45.435Z,98123.95
2018-03-01T14:09:17.365Z,98137.48
2018-03-01T14:11:48.446Z,98124.91
2018-03-01T14:14:19.509Z,98119.20
2018-03-01T14:16:50.643Z,98121.81
2018-03-01T14:19:22.247Z,98125.21
2018-03-01T14:21:54.624Z,98104.73
2018-03-01T14:24:25.897Z,98101.95
2018-03-01T14:26:57.687Z,98103.13
2018-03-01T14:29:28.988Z,98093.91
2018-03-01T14:32:00.143Z,98094.83
2018-03-01T14:34:31.336Z,98091.73
2018-03-01T14:37:03.100Z,98096.20
2018-03-01T14:39:34.005Z,98093.82
2018-03-01T14:42:04.864Z,98088.09
2018-03-01T14:44:35.765Z,98092.48
2018-03-01T14:47:07.824Z,98093.81
2018-03-01T14:49:38.908Z,98078.48
2018-03-01T14:52:09.815Z,98084.25
2018-03-01T14:54:41.146Z,98079.28
2018-03-01T14:57:12.359Z,98078.02
2018-03-01T14:59:43.265Z,98065.59
2018-03-01T15:02:14.085Z,98067.19
2018-03-01T15:04:44.899Z,98068.38
2018-03-01T15:07:17.312Z,98058.44
2018-03-01T15:09:50.098Z,98055.30
2018-03-01T15:12:21.530Z,98062.18
2018-03-01T15:14:52.400Z,98053.64
2018-03-01T15:17:23.549Z,98053.52
2018-03-01T15:19:58.861Z,98062.02
2018-03-01T15:22:29.909Z,98066.03
2018-03-01T15:25:01.874Z,98063.06
2018-03-01T15:27:33.814Z,98064.70
2018-03-01T15:30:04.901Z,98060.80
2018-03-01T15:32:36.552Z,98056.94
2018-03-01T15:35:07.506Z,98049.73
2018-03-01T15:37:38.565Z,98060.14
2018-03-01T15:40:09.688Z,98046.16
2018-03-01T15:42:41.012Z,98057.72
2018-03-01T15:45:13.069Z,98049.48
2018-03-01T15:47:44.401Z,98053.23
2018-03-01T15:50:15.206Z,98055.00
2018-03-01T15:52:46.293Z,98041.09
2018-03-01T15:55:18.606Z,98041.02
2018-03-01T15:57:49.439Z,98032.92
2018-03-01T16:00:20.565Z,98035.99
2018-03-01T16:02:51.736Z,98028.38
2018-03-01T16:05:23.419Z,98026.52
2018-03-01T16:07:55.238Z,98027.85
2018-03-01T16:10:26.441Z,98030.12
2018-03-01T16:12:58.133Z,98032.66
2018-03-01T16:15:29.190Z,98026.04
2018-03-01T16:18:00.548Z,98037.86
2018-03-01T16:20:31.673Z,98031.47
2018-03-01T16:23:03.208Z,98029.79
2018-03-01T16:25:34.541Z,98024.41
2018-03-01T16:28:05.676Z,98025.82
2018-03-01T16:30:36.776Z,98026.34
2018-03-01T16:33:08.161Z,98024.38
2018-03-01T16:35:39.314Z,98014.17
2018-03-01T16:38:10.869Z,98023.15
2018-03-01T16:40:41.897Z,98023.61
2018-03-01T16:43:12.997Z,98022.02
2018-03-01T16:45:44.821Z,98018.69
2018-03-01T16:48:15.912Z,98025.22
2018-03-01T16:50:46.966Z,98022.83
2018-03-01T16:53:21.288Z,98027.45
2018-03-01T16:55:52.341Z,98027.36
2018-03-01T16:58:23.821Z,98029.56
2018-03-01T17:00:54.918Z,98025.62
2018-03-01T17:03:26.026Z,98033.69
2018-03-01T17:05:58.232Z,98044.09
2018-03-01T17:08:29.395Z,98045.53
2018-03-01T17:11:00.484Z,98044.86
2018-03-01T17:13:32.410Z,98050.64
2018-03-01T17:16:03.557Z,98050.78
2018-03-01T17:18:35.083Z,98050.42
2018-03-01T17:21:06.161Z,98048.77
2018-03-01T17:23:37.357Z,98053.80
2018-03-01T17:26:14.657Z,98052.91
2018-03-01T17:28:45.775Z,98053.22
2018-03-01T17:31:19.071Z,98053.33
2018-03-01T17:33:50.235Z,98064.93
2018-03-01T17:36:21.458Z,98066.25
2018-03-01T17:38:52.821Z,98062.21
2018-03-01T17:41:25.154Z,98056.87
2018-03-01T17:43:56.709Z,98058.64
2018-03-01T17:46:27.813Z,98057.77
2018-03-01T17:48:58.952Z,98059.73
2018-03-01T17:51:30.597Z,98053.62
2018-03-01T17:54:01.725Z,98056.30
2018-03-01T17:56:32.863Z,98062.90
2018-03-01T17:59:04.762Z,98065.91
2018-03-01T18:01:35.926Z,98061.94
2018-03-01T18:04:09.200Z,98062.75
2018-03-01T18:06:40.345Z,98060.58
2018-03-01T18:09:11.937Z,98048.02
2018-03-01T18:11:43.033Z,98043.39
2018-03-01T18:14:14.148Z,98038.85
2018-03-01T18:16:45.548Z,98046.38
2018-03-01T18:19:16.689Z,98048.28
2018-03-01T18:21:47.777Z,98046.20
2018-03-01T18:24:20.114Z,98045.06
2018-03-01T18:26:52.362Z,98039.63
2018-03-01T18:29:25.443Z,98045.08
2018-03-01T18:31:56.541Z,98038.14
2018-03-01T18:34:27.671Z,98039.14
2018-03-01T18:37:06.167Z,98033.38
2018-03-01T18:39:37.312Z,98025.25
2018-03-01T18:42:08.708Z,98027.67
2018-03-01T18:44:39.833Z,98033.44
2018-03-01T18:47:10.955Z,98030.42
2018-03-01T18:49:42.367Z,98036.07
2018-03-01T18:52:13.551Z,98035.09
2018-03-01T18:54:44.683Z,98027.89
2018-03-01T18:57:16.171Z,98027.16
2018-03-01T18:59:51.603Z,98021.98
2018-03-01T19:02:22.696Z,98028.94
2018-03-01T19:04:54.068Z,98030.25
2018-03-01T19:07:25.299Z,98027.13
2018-03-01T19:12:33.318Z,98021.66
2018-03-01T19:15:04.445Z,98026.92
2018-03-01T19:17:35.901Z,98016.70
2018-03-01T19:20:07.182Z,98012.42
2018-03-01T19:22:38.300Z,98015.19
2018-03-01T19:25:09.739Z,98009.44
2018-03-01T19:27:40.831Z,98010.94
2018-03-01T19:30:11.971Z,98010.75
2018-03-01T19:32:43.924Z,98008.98
2018-03-01T19:35:15.011Z,98011.64
2018-03-01T19:37:46.140Z,98006.04
2018-03-01T19:40:17.568Z,98012.97
2018-03-01T19:42:49.231Z,98005.14
2018-03-01T19:45:20.260Z,98003.31
2018-03-01T19:47:51.663Z,97990.02
2018-03-01T19:50:22.787Z,97990.69
2018-03-01T19:52:54.365Z,97983.89
2018-03-01T19:55:25.736Z,97979.55
2018-03-01T19:57:57.279Z,97978.38
2018-03-01T20:00:28.402Z,97986.38
2018-03-01T20:02:59.761Z,97983.70
2018-03-01T20:05:30.928Z,97974.14
2018-03-01T20:08:02.135Z,97981.75
2018-03-01T20:10:33.674Z,97972.23
2018-03-01T20:13:04.777Z,97965.64
2018-03-01T20:15:35.855Z,97959.53
2018-03-01T20:18:08.155Z,97965.95
2018-03-01T20:20:39.256Z,97956.69
2018-03-01T20:23:10.400Z,97952.78
2018-03-01T20:25:41.846Z,97955.69
2018-03-01T20:28:13.789Z,97953.70
2018-03-01T20:30:44.921Z,97951.91
2018-03-01T20:33:19.205Z,97947.27
2018-03-01T20:35:50.402Z,97956.58
2018-03-01T20:38:21.748Z,97956.98
2018-03-01T20:40:53.317Z,97957.95
2018-03-01T20:43:24.814Z,97950.58
2018-03-01T20:45:55.937Z,97947.91
2018-03-01T20:48:27.313Z,97954.91
2018-03-01T20:51:00.393Z,97939.92
2018-03-01T20:53:31.509Z,97937.17
2018-03-01T20:56:04.640Z,97934.50
2018-03-01T20:58:35.789Z,97935.05
2018-03-01T21:01:06.949Z,97928.58
2018-03-01T21:03:38.324Z,97930.76
2018-03-01T21:06:10.365Z,97924.88
2018-03-01T21:08:42.115Z,97924.32
2018-03-01T21:11:14.090Z,97920.02
2018-03-01T21:13:45.234Z,97914.86
2018-03-01T21:16:16.978Z,97909.47
2018-03-01T21:18:48.034Z,97900.05
2018-03-01T21:21:19.218Z,97904.28
2018-03-01T21:23:51.027Z,97897.09
2018-03-01T21:26:22.239Z,97900.77
2018-03-01T21:28:53.362Z,97897.52
2018-03-01T21:31:24.711Z,97894.95
2018-03-01T21:33:56.179Z,97882.62
2018-03-01T21:36:27.395Z,97878.67
2018-03-01T21:39:00.440Z,97875.12
2018-03-01T21:41:31.629Z,97872.64
2018-03-01T21:47:01.905Z,97875.67
2018-03-01T21:49:33.077Z,97874.89
2018-03-01T21:52:04.945Z,97867.00
2018-03-01T21:54:36.049Z,97868.75
2018-03-01T21:57:07.101Z,97867.81
2018-03-01T21:59:38.653Z,97866.27
2018-03-01T22:02:10.353Z,97869.39
2018-03-01T22:04:41.729Z,97861.92
2018-03-01T22:07:13.341Z,97861.00
2018-03-01T22:09:44.524Z,97859.91
2018-03-01T22:12:16.564Z,97853.94
2018-03-01T22:14:48.261Z,97842.69
2018-03-01T22:17:19.386Z,97840.20
2018-03-01T22:19:51.076Z,97832.24
2018-03-01T22:22:22.141Z,97825.42
2018-03-01T22:24:53.613Z,97818.81
2018-03-01T22:27:24.761Z,97823.03
2018-03-01T22:29:55.930Z,97810.98
2018-03-01T22:32:27.281Z,97814.26
2018-03-01T22:34:58.374Z,97812.06
2018-03-01T22:37:29.826Z,97809.69
2018-03-01T22:40:03.966Z,97807.43
2018-03-01T22:42:36.101Z,97801.41
2018-03-01T22:45:08.260Z,97799.74
2018-03-01T22:47:39.390Z,97801.80
2018-03-01T22:50:11.801Z,97801.58
2018-03-01T22:52:43.210Z,97800.22
2018-03-01T22:55:17.210Z,97789.91
2018-03-01T22:57:48.785Z,97787.98
2018-03-01T23:00:28.782Z,97790.61
2018-03-01T23:03:00.725Z,97797.41
2018-03-01T23:05:31.845Z,97789.25
2018-03-01T23:08:04.269Z,97787.48
2018-03-01T23:10:36.184Z,97788.04
2018-03-01T23:13:07.264Z,97777.77
2018-03-01T23:15:38.673Z,97774.92
2018-03-01T23:18:11.224Z,97770.77
2018-03-01T23:20:47.502Z,97762.77
2018-03-01T23:24:42.978Z,97756.12
2018-03-01T23:27:14.156Z,97758.25
2018-03-01T23:29:45.752Z,97746.97
2018-03-01T23:32:17.416Z,97750.48
2018-03-01T23:34:48.529Z,97744.53
2018-03-01T23:37:20.077Z,97741.47
2018-03-01T23:39:51.882Z,97741.56
2018-03-01T23:42:23.747Z,97738.29
2018-03-01T23:44:55.906Z,97733.90
2018-03-01T23:47:27.581Z,97735.64
2018-03-01T23:49:58.964Z,97736.23
2018-03-01T23:52:31.090Z,97729.41
2018-03-01T23:55:03.420Z,97729.51
2018-03-01T23:57:36.396Z,97721.41
